Архив погоды в Уаките

Метеограмма Уакит
Суббота, 18 Августа
Время местн. Темп Ветер Видим Явления Облачность нижн/средн/верх Атм. давл. Влжн Точка росы ВНГО R Сост. почвы Tg s
Напр Скр Прв ур.ст ур.м изм
08:00 +11.5° С,С-З 4 - 20 км осадки вдали станции переменная облачность 661 630 +0.1 67% +5.6° 1.5 км 0 Влажная (без луж) - -
05:00 - +6.2° штиль 0 - - - - 661 629 0 92% +5° - - - - -
02:00 +7.4° З,С-З 4 - - небо без изменений {ливневые осадки} переменная облачность 661 629 -0.5 82% +4.6° - - - - -
Пятница, 17 Августа
Время местн. Темп Ветер Видим Явления Облачность нижн/средн/верх Атм. давл. Влжн Точка росы ВНГО R Сост. почвы Tg s
Напр Скр Прв ур.ст ур.м изм
23:00 - +8.1° З,С-З 3 - - - - 661 630 -0.4 85% +5.8° - - - - -
20:00 +9.2° З,С-З 2 - 20 км осадки вдали станции облачно 662 630 +0.1 92% +7.9° 1.5 км 0.7 - - -
17:00 - +12° Ю,Ю-З 3 10 - - - 662 631 +0.1 74% +7.5° - - - - -
14:00 +14.9° З 2 - 20 км осадки вдали станции облачно 661 631 -0.9 57% +6.4° 1.5 км - - - -
11:00 - +14.2° Ю 2 - - - - 662 632 -0.8 61% +6.8° - - - - -
08:00 +9.8° штиль 0 - более 50 км - облачно с прояснениями 663 632 -0.2 84% +7.3° 1.5 км 0.4 Влажная (без луж) +7° -
05:00 - +6.9° З,С-З 2 - - - - 663 632 -0.6 97% +6.5° - - - - -
02:00 +6.8° З,С-З 2 - - небо без изменений {ливневые осадки} облачно с прояснениями 664 632 -0.5 93% +5.7° 1.5 км - - - -
Четверг, 16 Августа
Время местн. Темп Ветер Видим Явления Облачность нижн/средн/верх Атм. давл. Влжн Точка росы ВНГО R Сост. почвы Tg s
Напр Скр Прв ур.ст ур.м изм
23:00 - +10.5° З 1 - - - - 664 633 -0.5 81% +7.4° - - - - -
20:00 +12.1° З,С-З 1 - 20 км слабый ливневый дождь облачно 665 634 -0.1 91% +10.7° 1.5 км 2 - - -
17:00 - +14.8° С-В 1 - - - - 665 634 -0.3 78% +11° - - - - -
14:00 +15.9° С 1 - 20 км осадки вдали станции облачно 665 635 -0.8 80% +12.5° 1.5 км - - - -
11:00 - +16.7° Ю 1 - - - - 666 635 -0.5 74% +12.1° - - - - -
08:00 +14.1° Ю-В 1 - 20 км осадки вдали станции облачно 666 635 -0.4 95% +13.3° 1 км 9 Влажная (без луж) +13° -
05:00 - +13.5° штиль 0 - - - - 667 636 +0.2 97% +13.1° - - - - -
02:00 +14.9° штиль 0 - - слабый ливневый дождь облачно 668 637 -0.8 97% +14.4° 1 км - - - -
Среда, 15 Августа
Время местн. Темп Ветер Видим Явления Облачность нижн/средн/верх Атм. давл. Влжн Точка росы ВНГО R Сост. почвы Tg s
Напр Скр Прв ур.ст ур.м изм
23:00 - +16.6° Ю 2 - - - - 669 638 +0.2 89% +14.8° - - - - -
20:00 +20.3° штиль 0 - более 50 км - облачно 669 638 -0.5 65% +13.4° 1.5 км 0 - - -
17:00 - +22.8° Ю 1 - - - - 669 639 -0.6 55% +13.4° - - - - -
14:00 +23.1° Ю 3 - более 50 км - облачно 670 640 -0.8 52% +12.7° 1.5 км - - - -
11:00 - +21.8° Ю,Ю-В 1 - - - - 671 640 -0.8 58% +13.1° - - - - -
08:00 +15.1° штиль 0 - более 50 км - облачно 671 640 +0.5 76% +10.9° более 2.5 км 0 Влажная (без луж) +7° -
05:00 - +8° штиль 0 - - - - 671 639 +0.2 95% +7.3° - - - - -